createdAt,value
2022-12-20T00:01:56.504Z,12.65
2022-12-20T00:04:24.528Z,12.60
2022-12-20T00:06:52.453Z,13.25
2022-12-20T00:09:21.253Z,12.52
2022-12-20T00:11:49.157Z,13.55
2022-12-20T00:14:18.738Z,14.57
2022-12-20T00:16:46.733Z,14.88
2022-12-20T00:19:14.720Z,13.48
2022-12-20T00:21:42.671Z,13.57
2022-12-20T00:24:11.902Z,14.00
2022-12-20T00:26:40.256Z,12.38
2022-12-20T00:29:08.578Z,14.27
2022-12-20T00:31:38.025Z,14.50
2022-12-20T00:34:06.065Z,14.45
2022-12-20T00:36:34.477Z,15.52
2022-12-20T00:39:03.082Z,15.20
2022-12-20T00:41:33.414Z,16.00
2022-12-20T00:44:01.796Z,19.15
2022-12-20T00:46:30.116Z,20.58
2022-12-20T00:49:01.578Z,21.73
2022-12-20T00:51:31.919Z,24.85
2022-12-20T00:53:59.912Z,25.80
2022-12-20T00:56:27.857Z,27.73
2022-12-20T00:58:55.977Z,29.52
2022-12-20T01:01:25.891Z,29.75
2022-12-20T01:03:55.152Z,34.40
2022-12-20T01:06:26.071Z,35.97
2022-12-20T01:08:54.552Z,31.98
2022-12-20T01:11:23.979Z,37.30
2022-12-20T01:13:53.878Z,31.20
2022-12-20T01:16:24.426Z,33.15
2022-12-20T01:18:53.215Z,35.20
2022-12-20T01:21:23.268Z,33.55
2022-12-20T01:23:52.836Z,34.80
2022-12-20T01:26:23.393Z,36.42
2022-12-20T01:28:54.954Z,35.08
2022-12-20T01:31:23.710Z,33.30
2022-12-20T01:33:52.851Z,30.90
2022-12-20T01:36:25.104Z,33.40
2022-12-20T01:41:27.253Z,32.83
2022-12-20T01:43:57.947Z,31.00
2022-12-20T01:46:27.745Z,27.80
2022-12-20T01:49:00.306Z,28.63
2022-12-20T01:54:02.903Z,30.33
2022-12-20T01:56:30.927Z,34.00
2022-12-20T01:58:59.150Z,33.65
2022-12-20T02:01:27.363Z,31.02
2022-12-20T02:03:56.374Z,31.20
2022-12-20T02:06:27.766Z,32.80
2022-12-20T02:09:00.825Z,29.52
2022-12-20T02:11:50.762Z,32.80
2022-12-20T02:14:32.610Z,31.50
2022-12-20T02:17:09.488Z,32.53
2022-12-20T02:20:03.030Z,35.63
2022-12-20T02:22:44.800Z,31.30
2022-12-20T02:25:47.529Z,32.47
2022-12-20T02:28:34.923Z,31.17
2022-12-20T02:31:09.136Z,32.45
2022-12-20T02:33:37.064Z,35.08
2022-12-20T02:36:05.359Z,31.75
2022-12-20T02:38:36.287Z,30.80
2022-12-20T02:41:08.862Z,29.42
2022-12-20T02:43:57.954Z,30.10
2022-12-20T02:46:28.518Z,27.55
2022-12-20T02:49:00.783Z,26.80
2022-12-20T02:51:32.707Z,25.70
2022-12-20T02:54:01.304Z,25.83
2022-12-20T02:56:33.423Z,25.23
2022-12-20T02:59:06.380Z,25.58
2022-12-20T03:01:41.899Z,24.65
2022-12-20T03:04:10.367Z,23.98
2022-12-20T03:06:38.271Z,23.02
2022-12-20T03:09:06.222Z,21.65
2022-12-20T03:11:34.230Z,21.55
2022-12-20T03:14:02.545Z,19.80
2022-12-20T03:16:30.478Z,19.88
2022-12-20T03:18:59.792Z,22.20
2022-12-20T03:21:27.741Z,20.40
2022-12-20T03:23:56.014Z,19.05
2022-12-20T03:26:23.946Z,16.98
2022-12-20T03:28:51.889Z,18.30
2022-12-20T03:31:20.145Z,19.33
2022-12-20T03:33:49.096Z,16.67
2022-12-20T03:36:23.406Z,18.23
2022-12-20T03:38:51.780Z,19.38
2022-12-20T03:41:20.164Z,18.90
2022-12-20T03:43:48.332Z,18.23
2022-12-20T03:46:16.542Z,20.65
2022-12-20T03:48:44.833Z,20.73
2022-12-20T03:51:13.134Z,22.55
2022-12-20T03:53:42.441Z,19.85
2022-12-20T03:56:11.216Z,20.63
2022-12-20T03:58:40.373Z,21.23
2022-12-20T04:01:19.478Z,22.25
2022-12-20T04:03:48.252Z,24.05
2022-12-20T04:06:16.392Z,22.35
2022-12-20T04:08:46.069Z,22.10
2022-12-20T04:11:17.336Z,22.08
2022-12-20T04:13:45.925Z,25.70
2022-12-20T04:16:14.626Z,26.30
2022-12-20T04:18:42.867Z,27.48
2022-12-20T04:21:11.355Z,27.80
2022-12-20T04:23:41.983Z,28.83
2022-12-20T04:26:13.353Z,27.52
2022-12-20T04:28:41.340Z,27.35
2022-12-20T04:31:09.847Z,30.45
2022-12-20T04:33:38.544Z,31.80
2022-12-20T04:36:06.815Z,32.25
2022-12-20T04:38:35.152Z,31.30
2022-12-20T04:41:03.139Z,41.40
2022-12-20T04:43:32.456Z,40.08
2022-12-20T04:46:00.497Z,37.63
2022-12-20T04:48:55.795Z,37.28
2022-12-20T04:51:18.433Z,37.95
2022-12-20T04:53:48.747Z,36.20
2022-12-20T04:56:18.402Z,38.90
2022-12-20T04:58:48.253Z,35.90
2022-12-20T05:01:16.403Z,36.33
2022-12-20T05:03:44.877Z,33.63
2022-12-20T05:06:13.563Z,36.05
2022-12-20T05:08:41.584Z,31.73
2022-12-20T05:11:10.062Z,33.30
2022-12-20T05:13:38.034Z,33.17
2022-12-20T05:16:08.227Z,30.20
2022-12-20T05:18:36.282Z,33.17
2022-12-20T05:21:22.180Z,30.92
2022-12-20T05:24:07.563Z,30.85
2022-12-20T05:26:37.714Z,30.08
2022-12-20T05:29:06.563Z,30.00
2022-12-20T05:31:35.931Z,26.77
2022-12-20T05:34:03.931Z,29.02
2022-12-20T05:36:32.068Z,24.38
2022-12-20T05:39:04.202Z,23.60
2022-12-20T05:41:33.005Z,21.40
2022-12-20T05:44:02.207Z,23.08
2022-12-20T05:46:30.242Z,22.55
2022-12-20T05:48:59.743Z,23.25
2022-12-20T05:51:27.726Z,18.60
2022-12-20T05:53:55.641Z,19.42
2022-12-20T05:56:23.549Z,19.70
2022-12-20T05:58:51.517Z,18.83
2022-12-20T06:01:19.443Z,17.23
2022-12-20T06:03:47.559Z,17.80
2022-12-20T06:06:17.066Z,17.10
2022-12-20T06:08:45.079Z,15.63
2022-12-20T06:11:13.027Z,15.52
2022-12-20T06:13:41.119Z,15.30
2022-12-20T06:16:09.291Z,14.80
2022-12-20T06:18:37.391Z,13.57
2022-12-20T06:21:05.781Z,13.73
2022-12-20T06:23:35.779Z,13.52
2022-12-20T06:26:04.820Z,12.93
2022-12-20T06:28:32.894Z,13.45
2022-12-20T06:31:00.967Z,15.70
2022-12-20T06:33:29.025Z,14.20
2022-12-20T06:35:57.126Z,14.70
2022-12-20T06:38:25.245Z,13.88
2022-12-20T06:40:54.978Z,12.43
2022-12-20T06:43:23.037Z,12.23
2022-12-20T06:45:51.130Z,13.25
2022-12-20T06:48:21.191Z,13.30
2022-12-20T06:50:55.484Z,12.63
2022-12-20T06:53:24.263Z,13.65
2022-12-20T06:55:54.319Z,11.88
2022-12-20T06:58:22.859Z,11.98
2022-12-20T07:00:51.287Z,12.93
2022-12-20T07:03:19.459Z,11.52
2022-12-20T07:05:53.383Z,12.55
2022-12-20T07:08:21.682Z,10.85
2022-12-20T07:10:49.969Z,10.48
2022-12-20T07:13:19.653Z,11.32
2022-12-20T07:15:48.274Z,11.68
2022-12-20T07:18:16.367Z,11.18
2022-12-20T07:20:44.428Z,11.73
2022-12-20T07:23:12.523Z,12.48
2022-12-20T07:25:40.627Z,12.07
2022-12-20T07:28:08.739Z,14.65
2022-12-20T07:30:38.516Z,16.65
2022-12-20T07:33:06.619Z,17.67
2022-12-20T07:35:34.724Z,17.15
2022-12-20T07:38:02.802Z,16.55
2022-12-20T07:40:30.932Z,17.15
2022-12-20T07:42:59.088Z,18.02
2022-12-20T07:45:27.172Z,17.23
2022-12-20T07:47:57.252Z,18.00
2022-12-20T07:50:25.787Z,21.20
2022-12-20T07:52:53.994Z,22.80
2022-12-20T07:55:22.678Z,24.73
2022-12-20T07:57:54.168Z,25.20
2022-12-20T08:00:22.694Z,25.93
2022-12-20T08:02:56.159Z,24.55
2022-12-20T08:05:26.138Z,26.83
2022-12-20T08:07:59.366Z,26.50
2022-12-20T08:10:29.078Z,30.95
2022-12-20T08:12:57.515Z,31.38
2022-12-20T08:15:26.292Z,29.75
2022-12-20T08:17:54.341Z,29.75
2022-12-20T08:20:22.406Z,27.85
2022-12-20T08:22:51.887Z,27.42
2022-12-20T08:25:21.560Z,28.90
2022-12-20T08:27:49.663Z,26.58
2022-12-20T08:30:18.680Z,28.45
2022-12-20T08:32:46.830Z,29.95
2022-12-20T08:35:15.133Z,27.17
2022-12-20T08:37:43.271Z,29.33
2022-12-20T08:40:13.506Z,29.25
2022-12-20T08:42:41.709Z,26.60
2022-12-20T08:45:10.471Z,26.20
2022-12-20T08:47:38.585Z,29.42
2022-12-20T08:50:07.913Z,27.70
2022-12-20T08:52:36.028Z,28.88
2022-12-20T08:55:05.319Z,28.98
2022-12-20T08:57:35.335Z,31.08
2022-12-20T09:00:04.093Z,30.10
2022-12-20T09:02:32.388Z,29.08
2022-12-20T09:05:00.677Z,28.27
2022-12-20T09:07:28.813Z,31.58
2022-12-20T09:09:57.349Z,31.63
2022-12-20T09:12:25.441Z,36.45
2022-12-20T09:14:54.887Z,33.50
2022-12-20T09:17:22.988Z,35.70
2022-12-20T09:19:51.121Z,37.53
2022-12-20T09:22:19.244Z,37.05
2022-12-20T09:24:47.343Z,37.60
2022-12-20T09:27:15.427Z,40.78
2022-12-20T09:29:43.641Z,40.03
2022-12-20T09:32:13.141Z,39.83
2022-12-20T09:34:41.247Z,45.50
2022-12-20T09:37:09.368Z,42.85
2022-12-20T09:39:37.800Z,44.67
2022-12-20T09:42:09.326Z,43.22
2022-12-20T09:44:40.579Z,46.37
2022-12-20T09:47:16.675Z,43.45
2022-12-20T09:49:47.646Z,44.58
2022-12-20T09:52:33.840Z,44.67
2022-12-20T09:55:14.010Z,43.40
2022-12-20T09:57:54.754Z,42.47
2022-12-20T10:00:23.047Z,42.22
2022-12-20T10:03:08.790Z,44.42
2022-12-20T10:05:47.053Z,45.00
2022-12-20T10:08:25.178Z,49.10
2022-12-20T10:10:56.360Z,46.88
2022-12-20T10:13:41.849Z,50.65
2022-12-20T10:16:27.947Z,48.30
2022-12-20T10:19:08.027Z,48.28
2022-12-20T10:21:44.732Z,49.33
2022-12-20T10:24:19.204Z,54.10
2022-12-20T10:26:50.757Z,56.88
2022-12-20T10:29:19.396Z,50.87
2022-12-20T10:31:48.158Z,50.15
2022-12-20T10:34:17.644Z,53.45
2022-12-20T10:36:45.858Z,52.00
2022-12-20T10:39:13.936Z,54.55
2022-12-20T10:41:52.136Z,56.72
2022-12-20T10:44:24.714Z,58.58
2022-12-20T10:46:55.721Z,59.65
2022-12-20T10:49:32.107Z,60.25
2022-12-20T10:52:02.645Z,57.25
2022-12-20T10:54:33.715Z,58.35
2022-12-20T10:57:04.170Z,61.88
2022-12-20T10:59:36.274Z,63.83
2022-12-20T11:02:23.176Z,58.95
2022-12-20T11:05:01.565Z,60.15
2022-12-20T11:07:31.768Z,60.00
2022-12-20T11:10:01.511Z,65.18
2022-12-20T11:12:29.888Z,61.78
2022-12-20T11:15:11.083Z,56.55
2022-12-20T11:17:46.608Z,57.92
2022-12-20T11:20:36.402Z,65.18
2022-12-20T11:23:17.231Z,71.95
2022-12-20T11:26:03.587Z,70.40
2022-12-20T11:28:49.295Z,68.95
2022-12-20T11:31:24.276Z,66.57
2022-12-20T11:34:04.617Z,65.00
2022-12-20T11:36:52.443Z,61.88
2022-12-20T11:39:33.176Z,61.53
2022-12-20T11:42:07.462Z,68.07
2022-12-20T11:44:56.331Z,69.25
2022-12-20T11:47:56.141Z,69.78
2022-12-20T11:50:58.679Z,61.63
2022-12-20T11:53:33.876Z,57.15
2022-12-20T11:56:07.927Z,61.47
2022-12-20T11:58:49.557Z,63.20
2022-12-20T12:01:19.629Z,65.32
2022-12-20T12:04:02.057Z,77.10
2022-12-20T12:06:33.803Z,73.38
2022-12-20T12:09:15.492Z,69.25
2022-12-20T12:12:06.661Z,75.67
2022-12-20T12:14:49.229Z,67.68
2022-12-20T12:17:25.917Z,70.45
2022-12-20T12:19:58.297Z,66.22
2022-12-20T12:25:02.807Z,63.08
2022-12-20T12:27:31.038Z,68.60
2022-12-20T12:29:59.954Z,62.35
2022-12-20T12:32:33.526Z,71.35
2022-12-20T12:35:23.857Z,71.65
2022-12-20T12:38:04.617Z,77.32
2022-12-20T12:41:09.028Z,75.78
2022-12-20T12:43:47.792Z,77.82
2022-12-20T12:46:18.331Z,77.38
2022-12-20T12:48:53.367Z,80.97
2022-12-20T12:51:30.095Z,81.15
2022-12-20T12:54:05.484Z,82.93
2022-12-20T12:56:44.572Z,78.35
2022-12-20T12:59:40.857Z,78.80
2022-12-20T13:02:37.367Z,67.95
2022-12-20T13:05:33.358Z,72.65
2022-12-20T13:08:01.740Z,72.93
2022-12-20T13:11:09.312Z,74.57
2022-12-20T13:13:38.857Z,73.57
2022-12-20T13:17:09.421Z,78.28
2022-12-20T13:19:31.003Z,77.90
2022-12-20T13:22:00.790Z,77.97
2022-12-20T13:24:39.162Z,71.80
2022-12-20T13:27:33.326Z,68.18
2022-12-20T13:30:33.529Z,75.18
2022-12-20T13:33:38.269Z,72.80
2022-12-20T13:36:35.507Z,75.47
2022-12-20T13:39:20.860Z,77.70
2022-12-20T13:41:51.929Z,81.82
2022-12-20T13:44:40.107Z,80.35
2022-12-20T13:47:33.970Z,84.40
2022-12-20T13:50:03.315Z,79.35
2022-12-20T13:52:33.120Z,84.45
2022-12-20T13:55:08.776Z,85.90
2022-12-20T13:57:44.756Z,86.95
2022-12-20T14:00:19.077Z,92.57
2022-12-20T14:02:48.893Z,89.75
2022-12-20T14:05:21.946Z,89.13
2022-12-20T14:07:57.201Z,87.90
2022-12-20T14:10:27.670Z,88.07
2022-12-20T14:12:56.634Z,89.72
2022-12-20T14:15:27.812Z,92.63
2022-12-20T14:17:58.141Z,87.20
2022-12-20T14:20:31.665Z,87.00
2022-12-20T14:23:05.927Z,89.38
2022-12-20T14:25:39.852Z,89.80
2022-12-20T14:28:26.509Z,91.97
2022-12-20T14:30:55.739Z,92.93
2022-12-20T14:33:30.740Z,92.60
2022-12-20T14:36:00.029Z,94.13
2022-12-20T14:38:31.761Z,97.45
2022-12-20T14:40:59.844Z,86.70
2022-12-20T14:43:30.092Z,94.28
2022-12-20T14:46:20.336Z,95.68
2022-12-20T14:48:50.187Z,86.93
2022-12-20T14:51:22.078Z,86.22
2022-12-20T14:53:53.397Z,89.80
2022-12-20T14:56:31.523Z,97.63
2022-12-20T14:59:06.964Z,92.43
2022-12-20T15:01:40.146Z,93.13
2022-12-20T15:04:24.951Z,96.78
2022-12-20T15:06:53.979Z,99.75
2022-12-20T15:09:22.956Z,100.00
2022-12-20T15:11:52.698Z,104.80
2022-12-20T15:14:32.996Z,99.88
2022-12-20T15:17:01.333Z,104.38
2022-12-20T15:19:31.527Z,104.00
2022-12-20T15:21:59.881Z,104.82
2022-12-20T15:24:29.854Z,107.95
2022-12-20T15:26:58.215Z,102.95
2022-12-20T15:29:28.681Z,102.43
2022-12-20T15:32:06.537Z,98.00
2022-12-20T15:34:39.039Z,100.28
2022-12-20T15:39:42.286Z,97.40
2022-12-20T15:42:16.660Z,105.47
2022-12-20T15:44:45.117Z,95.70
2022-12-20T15:47:14.470Z,95.90
2022-12-20T15:49:49.848Z,101.22
2022-12-20T15:52:22.414Z,96.68
2022-12-20T15:54:51.117Z,95.18
2022-12-20T15:57:19.367Z,101.53
2022-12-20T16:00:04.030Z,97.07
2022-12-20T16:02:34.168Z,94.13
2022-12-20T16:05:04.198Z,98.70
2022-12-20T16:07:32.312Z,100.10
2022-12-20T16:10:00.415Z,97.25
2022-12-20T16:12:31.170Z,99.20
2022-12-20T16:14:59.429Z,98.32
2022-12-20T16:17:27.519Z,101.80
2022-12-20T16:19:55.832Z,103.07
2022-12-20T16:22:26.343Z,104.00
2022-12-20T16:24:54.727Z,105.70
2022-12-20T16:27:22.826Z,98.88
2022-12-20T16:29:50.967Z,101.70
2022-12-20T16:32:21.824Z,104.10
2022-12-20T16:34:50.473Z,103.40
2022-12-20T16:37:19.004Z,99.72
2022-12-20T16:39:48.792Z,101.03
2022-12-20T16:42:22.097Z,103.70
2022-12-20T16:44:53.062Z,98.50
2022-12-20T16:47:21.722Z,104.68
2022-12-20T16:49:53.358Z,103.32
2022-12-20T16:52:23.205Z,105.60
2022-12-20T16:54:52.881Z,102.30
2022-12-20T16:57:21.982Z,101.93
2022-12-20T16:59:50.204Z,105.38
2022-12-20T17:02:25.741Z,105.57
2022-12-20T17:04:54.065Z,105.05
2022-12-20T17:07:22.335Z,108.13
2022-12-20T17:10:10.726Z,106.25
2022-12-20T17:12:38.921Z,104.47
2022-12-20T17:15:08.425Z,103.10
2022-12-20T17:17:36.534Z,103.10
2022-12-20T17:20:04.811Z,102.65
2022-12-20T17:25:26.170Z,104.35
2022-12-20T17:27:55.669Z,103.85
2022-12-20T17:30:25.906Z,106.07
2022-12-20T17:32:55.006Z,105.72
2022-12-20T17:35:28.819Z,105.78
2022-12-20T17:37:57.715Z,114.68
2022-12-20T17:40:28.504Z,109.75
2022-12-20T17:42:56.696Z,101.88
2022-12-20T17:45:27.950Z,106.30
2022-12-20T17:47:57.816Z,108.25
2022-12-20T17:50:27.782Z,110.40
2022-12-20T17:52:55.937Z,108.15
2022-12-20T17:55:28.081Z,103.32
2022-12-20T17:57:57.154Z,106.30
2022-12-20T18:00:31.787Z,111.20
2022-12-20T18:03:04.894Z,105.80
2022-12-20T18:05:32.927Z,107.60
2022-12-20T18:08:00.841Z,110.22
2022-12-20T18:10:30.171Z,105.85
2022-12-20T18:12:58.126Z,105.88
2022-12-20T18:15:26.049Z,110.30
2022-12-20T18:17:54.059Z,104.93
2022-12-20T18:20:22.146Z,107.40
2022-12-20T18:22:50.048Z,110.47
2022-12-20T18:25:18.241Z,108.93
2022-12-20T18:27:48.011Z,113.43
2022-12-20T18:30:16.180Z,111.43
2022-12-20T18:32:44.135Z,113.43
2022-12-20T18:35:12.143Z,114.72
2022-12-20T18:37:40.234Z,117.22
2022-12-20T18:40:09.833Z,116.53
2022-12-20T18:42:37.881Z,117.50
2022-12-20T18:45:08.473Z,118.40
2022-12-20T18:47:38.357Z,118.82
2022-12-20T18:50:08.023Z,118.75
2022-12-20T18:52:41.207Z,118.22
2022-12-20T18:55:16.175Z,119.47
2022-12-20T18:57:44.160Z,125.53
2022-12-20T19:00:15.639Z,117.50
2022-12-20T19:02:43.756Z,124.50
2022-12-20T19:05:12.155Z,121.70
2022-12-20T19:07:40.433Z,119.30
2022-12-20T19:10:09.913Z,119.10
2022-12-20T19:12:37.859Z,116.53
2022-12-20T19:15:06.692Z,117.90
2022-12-20T19:17:36.035Z,121.80
2022-12-20T19:20:05.264Z,123.75
2022-12-20T19:22:33.289Z,118.43
2022-12-20T19:25:01.263Z,119.07
2022-12-20T19:27:29.722Z,113.65
2022-12-20T19:29:57.693Z,110.88
2022-12-20T19:32:25.643Z,117.25
2022-12-20T19:34:54.991Z,106.90
2022-12-20T19:37:22.980Z,107.95
2022-12-20T19:39:50.896Z,105.15
2022-12-20T19:42:26.082Z,107.82
2022-12-20T19:44:54.100Z,108.60
2022-12-20T19:47:22.056Z,103.55
2022-12-20T19:49:50.177Z,101.40
2022-12-20T19:52:23.366Z,93.50
2022-12-20T19:54:56.079Z,93.22
2022-12-20T19:57:24.058Z,95.95
2022-12-20T19:59:55.705Z,91.70
2022-12-20T20:02:24.568Z,101.07
2022-12-20T20:04:52.767Z,100.05
2022-12-20T20:07:22.192Z,98.78
2022-12-20T20:09:50.114Z,99.90
2022-12-20T20:12:18.039Z,97.85
2022-12-20T20:14:45.991Z,97.55
2022-12-20T20:17:13.977Z,101.22
2022-12-20T20:19:42.589Z,98.95
2022-12-20T20:22:11.288Z,95.45
2022-12-20T20:24:40.619Z,96.32
2022-12-20T20:27:08.517Z,98.82
2022-12-20T20:29:36.830Z,98.43
2022-12-20T20:32:05.186Z,94.90
2022-12-20T20:34:33.160Z,94.57
2022-12-20T20:37:01.118Z,99.32
2022-12-20T20:39:29.165Z,95.88
2022-12-20T20:41:58.475Z,101.28
2022-12-20T20:44:26.501Z,102.78
2022-12-20T20:46:55.726Z,94.40
2022-12-20T20:49:23.683Z,95.43
2022-12-20T20:51:51.638Z,93.90
2022-12-20T20:54:19.540Z,96.07
2022-12-20T20:56:47.457Z,98.15
2022-12-20T20:59:18.033Z,98.93
2022-12-20T21:01:46.659Z,94.78
2022-12-20T21:04:14.668Z,93.95
2022-12-20T21:06:42.660Z,96.55
2022-12-20T21:09:11.366Z,88.03
2022-12-20T21:11:39.508Z,90.68
2022-12-20T21:14:07.620Z,89.05
2022-12-20T21:16:37.049Z,90.50
2022-12-20T21:19:05.646Z,92.13
2022-12-20T21:21:33.682Z,84.90
2022-12-20T21:24:01.725Z,88.15
2022-12-20T21:26:29.678Z,87.90
2022-12-20T21:28:58.336Z,80.13
2022-12-20T21:31:26.422Z,81.50
2022-12-20T21:33:56.715Z,80.97
2022-12-20T21:36:25.387Z,79.40
2022-12-20T21:38:55.101Z,78.35
2022-12-20T21:41:25.827Z,70.55
2022-12-20T21:43:56.501Z,75.47
2022-12-20T21:46:24.638Z,66.47
2022-12-20T21:48:53.038Z,70.47
2022-12-20T21:51:25.217Z,65.13
2022-12-20T21:53:55.158Z,94.78
2022-12-20T21:56:24.756Z,64.68
2022-12-20T21:58:53.024Z,69.18
2022-12-20T22:01:23.306Z,69.20
2022-12-20T22:03:52.230Z,64.03
2022-12-20T22:06:22.200Z,65.03
2022-12-20T22:08:50.354Z,65.22
2022-12-20T22:11:19.538Z,66.22
2022-12-20T22:13:48.181Z,65.18
2022-12-20T22:16:18.704Z,63.17
2022-12-20T22:18:50.645Z,65.90
2022-12-20T22:21:19.669Z,65.53
2022-12-20T22:23:49.967Z,67.93
2022-12-20T22:26:21.066Z,64.90
2022-12-20T22:28:51.388Z,62.70
2022-12-20T22:31:20.005Z,64.88
2022-12-20T22:33:49.349Z,64.85
2022-12-20T22:36:18.169Z,59.83
2022-12-20T22:38:46.862Z,62.90
2022-12-20T22:41:24.365Z,63.60
2022-12-20T22:43:52.858Z,60.88
2022-12-20T22:49:06.952Z,62.17
2022-12-20T22:51:34.841Z,63.05
2022-12-20T22:54:02.752Z,63.58
2022-12-20T22:56:31.998Z,61.40
2022-12-20T22:58:59.863Z,60.55
2022-12-20T23:01:27.975Z,62.28
2022-12-20T23:03:56.041Z,66.85
2022-12-20T23:06:24.157Z,68.00
2022-12-20T23:08:52.054Z,71.72
2022-12-20T23:11:39.820Z,68.00
2022-12-20T23:14:31.025Z,73.38
2022-12-20T23:16:59.353Z,74.72
2022-12-20T23:19:27.483Z,78.78
2022-12-20T23:22:12.981Z,72.57
2022-12-20T23:24:41.235Z,73.65
2022-12-20T23:27:09.413Z,70.07
2022-12-20T23:29:38.659Z,70.70
2022-12-20T23:32:06.603Z,76.22
2022-12-20T23:34:34.977Z,75.65
2022-12-20T23:37:02.862Z,79.95
2022-12-20T23:39:30.732Z,79.05
2022-12-20T23:41:58.600Z,66.40
2022-12-20T23:44:26.820Z,71.20
2022-12-20T23:46:56.298Z,76.15
2022-12-20T23:49:24.433Z,73.90
2022-12-20T23:51:52.738Z,76.85
2022-12-20T23:54:21.645Z,76.32
2022-12-20T23:56:50.779Z,75.07
2022-12-20T23:59:18.699Z,78.95
